sensor_id;sensor_type;location;lat;lon;timestamp;temperature;humidity
15103;DHT22;7652;53.584;9.998;2023-12-20T00:01:51;6.80;99.90
15103;DHT22;7652;53.584;9.998;2023-12-20T00:05:14;6.80;99.90
15103;DHT22;7652;53.584;9.998;2023-12-20T00:08:36;6.80;99.90
15103;DHT22;7652;53.584;9.998;2023-12-20T00:11:57;6.80;99.90
15103;DHT22;7652;53.584;9.998;2023-12-20T00:15:19;6.70;99.90
15103;DHT22;7652;53.584;9.998;2023-12-20T00:18:41;6.60;99.90
15103;DHT22;7652;53.584;9.998;2023-12-20T00:22:04;6.60;99.90
15103;DHT22;7652;53.584;9.998;2023-12-20T00:25:26;6.60;99.90
15103;DHT22;7652;53.584;9.998;2023-12-20T00:28:47;6.50;99.90
15103;DHT22;7652;53.584;9.998;2023-12-20T00:32:09;6.60;99.90
15103;DHT22;7652;53.584;9.998;2023-12-20T00:35:30;6.60;99.90
15103;DHT22;7652;53.584;9.998;2023-12-20T00:38:53;6.60;99.90
15103;DHT22;7652;53.584;9.998;2023-12-20T00:42:14;6.70;99.90
15103;DHT22;7652;53.584;9.998;2023-12-20T00:45:36;6.70;99.90
15103;DHT22;7652;53.584;9.998;2023-12-20T00:48:57;6.70;99.90
15103;DHT22;7652;53.584;9.998;2023-12-20T00:52:19;6.70;99.90
15103;DHT22;7652;53.584;9.998;2023-12-20T00:55:43;6.80;99.90
15103;DHT22;7652;53.584;9.998;2023-12-20T00:59:05;6.80;99.90
15103;DHT22;7652;53.584;9.998;2023-12-20T01:02:26;6.80;99.90
15103;DHT22;7652;53.584;9.998;2023-12-20T01:05:48;6.90;99.90
15103;DHT22;7652;53.584;9.998;2023-12-20T01:09:09;6.90;99.90
15103;DHT22;7652;53.584;9.998;2023-12-20T01:12:32;6.80;99.90
15103;DHT22;7652;53.584;9.998;2023-12-20T01:15:53;6.70;99.90
15103;DHT22;7652;53.584;9.998;2023-12-20T01:19:15;6.60;99.90
15103;DHT22;7652;53.584;9.998;2023-12-20T01:22:37;6.60;99.90
15103;DHT22;7652;53.584;9.998;2023-12-20T01:25:58;6.50;99.90
15103;DHT22;7652;53.584;9.998;2023-12-20T01:29:22;6.40;99.90
15103;DHT22;7652;53.584;9.998;2023-12-20T01:32:43;6.40;99.90
15103;DHT22;7652;53.584;9.998;2023-12-20T01:36:05;6.40;99.90
15103;DHT22;7652;53.584;9.998;2023-12-20T01:39:27;6.30;99.90
15103;DHT22;7652;53.584;9.998;2023-12-20T01:42:58;6.30;99.90
15103;DHT22;7652;53.584;9.998;2023-12-20T01:46:21;6.30;99.90
15103;DHT22;7652;53.584;9.998;2023-12-20T01:49:43;6.30;99.90
15103;DHT22;7652;53.584;9.998;2023-12-20T01:53:07;6.30;99.90
15103;DHT22;7652;53.584;9.998;2023-12-20T01:56:31;6.30;99.90
15103;DHT22;7652;53.584;9.998;2023-12-20T01:59:53;6.30;99.90
15103;DHT22;7652;53.584;9.998;2023-12-20T02:03:16;6.40;99.90
15103;DHT22;7652;53.584;9.998;2023-12-20T02:06:40;6.50;99.90
15103;DHT22;7652;53.584;9.998;2023-12-20T02:10:01;6.50;99.90
15103;DHT22;7652;53.584;9.998;2023-12-20T02:13:23;6.50;99.90
15103;DHT22;7652;53.584;9.998;2023-12-20T02:16:45;6.40;99.90
15103;DHT22;7652;53.584;9.998;2023-12-20T02:20:08;6.40;99.90
15103;DHT22;7652;53.584;9.998;2023-12-20T02:23:32;6.40;99.90
15103;DHT22;7652;53.584;9.998;2023-12-20T02:26:53;6.30;99.90
15103;DHT22;7652;53.584;9.998;2023-12-20T02:30:15;6.40;99.90
15103;DHT22;7652;53.584;9.998;2023-12-20T02:33:36;6.40;99.90
15103;DHT22;7652;53.584;9.998;2023-12-20T02:37:00;6.50;99.90
15103;DHT22;7652;53.584;9.998;2023-12-20T02:40:22;6.50;99.90
15103;DHT22;7652;53.584;9.998;2023-12-20T02:43:45;6.60;99.90
15103;DHT22;7652;53.584;9.998;2023-12-20T02:47:06;6.70;99.90
15103;DHT22;7652;53.584;9.998;2023-12-20T02:50:28;6.70;99.90
15103;DHT22;7652;53.584;9.998;2023-12-20T02:53:49;6.70;99.90
15103;DHT22;7652;53.584;9.998;2023-12-20T02:57:12;6.80;99.90
15103;DHT22;7652;53.584;9.998;2023-12-20T03:00:33;6.80;99.90
15103;DHT22;7652;53.584;9.998;2023-12-20T03:03:54;6.80;99.90
15103;DHT22;7652;53.584;9.998;2023-12-20T03:07:16;6.90;99.90
15103;DHT22;7652;53.584;9.998;2023-12-20T03:10:37;6.90;99.90
15103;DHT22;7652;53.584;9.998;2023-12-20T03:14:00;6.90;99.90
15103;DHT22;7652;53.584;9.998;2023-12-20T03:17:22;6.90;99.90
15103;DHT22;7652;53.584;9.998;2023-12-20T03:20:43;6.80;99.90
15103;DHT22;7652;53.584;9.998;2023-12-20T03:24:05;6.80;99.90
15103;DHT22;7652;53.584;9.998;2023-12-20T03:27:27;6.70;99.90
15103;DHT22;7652;53.584;9.998;2023-12-20T03:30:49;6.70;99.90
15103;DHT22;7652;53.584;9.998;2023-12-20T03:34:11;6.70;99.90
15103;DHT22;7652;53.584;9.998;2023-12-20T03:37:33;6.80;99.90
15103;DHT22;7652;53.584;9.998;2023-12-20T03:40:54;6.80;99.90
15103;DHT22;7652;53.584;9.998;2023-12-20T03:44:15;6.80;99.90
15103;DHT22;7652;53.584;9.998;2023-12-20T03:47:38;6.80;99.90
15103;DHT22;7652;53.584;9.998;2023-12-20T03:50:59;6.80;99.90
15103;DHT22;7652;53.584;9.998;2023-12-20T03:54:21;6.70;99.90
15103;DHT22;7652;53.584;9.998;2023-12-20T03:57:42;6.70;99.90
15103;DHT22;7652;53.584;9.998;2023-12-20T04:01:09;6.70;99.90
15103;DHT22;7652;53.584;9.998;2023-12-20T04:04:36;6.80;99.90
15103;DHT22;7652;53.584;9.998;2023-12-20T04:07:59;6.90;99.90
15103;DHT22;7652;53.584;9.998;2023-12-20T04:11:20;6.90;99.90
15103;DHT22;7652;53.584;9.998;2023-12-20T04:14:42;6.90;99.90
15103;DHT22;7652;53.584;9.998;2023-12-20T04:18:03;7.00;99.90
15103;DHT22;7652;53.584;9.998;2023-12-20T04:21:27;6.90;99.90
15103;DHT22;7652;53.584;9.998;2023-12-20T04:24:49;6.90;99.90
15103;DHT22;7652;53.584;9.998;2023-12-20T04:28:10;6.90;99.90
15103;DHT22;7652;53.584;9.998;2023-12-20T04:31:32;6.90;99.90
15103;DHT22;7652;53.584;9.998;2023-12-20T04:34:54;6.90;99.90
15103;DHT22;7652;53.584;9.998;2023-12-20T04:38:17;6.90;99.90
15103;DHT22;7652;53.584;9.998;2023-12-20T04:41:38;6.90;99.90
15103;DHT22;7652;53.584;9.998;2023-12-20T04:45:00;7.00;99.90
15103;DHT22;7652;53.584;9.998;2023-12-20T04:48:21;6.90;99.90
15103;DHT22;7652;53.584;9.998;2023-12-20T04:51:43;6.80;99.90
15103;DHT22;7652;53.584;9.998;2023-12-20T04:55:06;6.90;99.90
15103;DHT22;7652;53.584;9.998;2023-12-20T04:58:28;6.90;99.90
15103;DHT22;7652;53.584;9.998;2023-12-20T05:01:50;6.90;99.90
15103;DHT22;7652;53.584;9.998;2023-12-20T05:05:12;6.90;99.90
15103;DHT22;7652;53.584;9.998;2023-12-20T05:08:35;7.00;99.90
15103;DHT22;7652;53.584;9.998;2023-12-20T05:11:58;7.00;99.90
15103;DHT22;7652;53.584;9.998;2023-12-20T05:15:20;7.00;99.90
15103;DHT22;7652;53.584;9.998;2023-12-20T05:18:42;7.00;99.90
15103;DHT22;7652;53.584;9.998;2023-12-20T05:22:04;7.00;99.90
15103;DHT22;7652;53.584;9.998;2023-12-20T05:25:25;7.10;99.90
15103;DHT22;7652;53.584;9.998;2023-12-20T05:28:49;7.10;99.90
15103;DHT22;7652;53.584;9.998;2023-12-20T05:32:10;7.10;99.90
15103;DHT22;7652;53.584;9.998;2023-12-20T05:35:32;7.10;99.90
15103;DHT22;7652;53.584;9.998;2023-12-20T05:38:54;7.10;99.90
15103;DHT22;7652;53.584;9.998;2023-12-20T05:42:15;7.10;99.90
15103;DHT22;7652;53.584;9.998;2023-12-20T05:45:38;7.10;99.90
15103;DHT22;7652;53.584;9.998;2023-12-20T05:48:59;7.10;99.90
15103;DHT22;7652;53.584;9.998;2023-12-20T05:52:21;7.00;99.90
15103;DHT22;7652;53.584;9.998;2023-12-20T05:55:42;6.90;99.90
15103;DHT22;7652;53.584;9.998;2023-12-20T05:59:04;6.90;99.90
15103;DHT22;7652;53.584;9.998;2023-12-20T06:02:27;6.90;99.90
15103;DHT22;7652;53.584;9.998;2023-12-20T06:05:48;6.80;99.90
15103;DHT22;7652;53.584;9.998;2023-12-20T06:09:13;6.80;99.90
15103;DHT22;7652;53.584;9.998;2023-12-20T06:12:35;6.80;99.90
15103;DHT22;7652;53.584;9.998;2023-12-20T06:15:57;6.80;99.90
15103;DHT22;7652;53.584;9.998;2023-12-20T06:19:20;6.80;99.90
15103;DHT22;7652;53.584;9.998;2023-12-20T06:22:41;6.80;99.90
15103;DHT22;7652;53.584;9.998;2023-12-20T06:26:03;6.80;99.90
15103;DHT22;7652;53.584;9.998;2023-12-20T06:29:25;6.80;99.90
15103;DHT22;7652;53.584;9.998;2023-12-20T06:32:46;6.80;99.90
15103;DHT22;7652;53.584;9.998;2023-12-20T06:36:11;6.80;99.90
15103;DHT22;7652;53.584;9.998;2023-12-20T06:39:32;6.80;99.90
15103;DHT22;7652;53.584;9.998;2023-12-20T06:42:54;6.90;99.90
15103;DHT22;7652;53.584;9.998;2023-12-20T06:46:28;6.90;99.90
15103;DHT22;7652;53.584;9.998;2023-12-20T06:49:49;7.00;99.90
15103;DHT22;7652;53.584;9.998;2023-12-20T06:53:13;7.10;99.90
15103;DHT22;7652;53.584;9.998;2023-12-20T06:56:35;7.10;99.90
15103;DHT22;7652;53.584;9.998;2023-12-20T06:59:56;7.10;99.90
15103;DHT22;7652;53.584;9.998;2023-12-20T07:03:18;7.10;99.90
15103;DHT22;7652;53.584;9.998;2023-12-20T07:06:40;7.10;99.90
15103;DHT22;7652;53.584;9.998;2023-12-20T07:10:03;7.10;99.90
15103;DHT22;7652;53.584;9.998;2023-12-20T07:13:25;7.00;99.90
15103;DHT22;7652;53.584;9.998;2023-12-20T07:16:46;7.00;99.90
15103;DHT22;7652;53.584;9.998;2023-12-20T07:20:08;7.00;99.90
15103;DHT22;7652;53.584;9.998;2023-12-20T07:23:31;7.00;99.90
15103;DHT22;7652;53.584;9.998;2023-12-20T07:26:54;7.10;99.90
15103;DHT22;7652;53.584;9.998;2023-12-20T07:30:16;7.20;99.90
15103;DHT22;7652;53.584;9.998;2023-12-20T07:33:38;7.20;99.90
15103;DHT22;7652;53.584;9.998;2023-12-20T07:37:00;7.20;99.90
15103;DHT22;7652;53.584;9.998;2023-12-20T07:40:22;7.30;99.90
15103;DHT22;7652;53.584;9.998;2023-12-20T07:43:45;7.30;99.90
15103;DHT22;7652;53.584;9.998;2023-12-20T07:47:07;7.30;99.90
15103;DHT22;7652;53.584;9.998;2023-12-20T07:50:28;7.30;99.90
15103;DHT22;7652;53.584;9.998;2023-12-20T07:53:51;7.30;99.90
15103;DHT22;7652;53.584;9.998;2023-12-20T07:57:13;7.30;99.90
15103;DHT22;7652;53.584;9.998;2023-12-20T08:00:35;7.30;99.90
15103;DHT22;7652;53.584;9.998;2023-12-20T08:03:57;7.30;99.90
15103;DHT22;7652;53.584;9.998;2023-12-20T08:07:19;7.40;99.90
15103;DHT22;7652;53.584;9.998;2023-12-20T08:10:40;7.40;99.90
15103;DHT22;7652;53.584;9.998;2023-12-20T08:14:02;7.50;99.90
15103;DHT22;7652;53.584;9.998;2023-12-20T08:17:24;7.60;99.90
15103;DHT22;7652;53.584;9.998;2023-12-20T08:20:46;7.70;99.90
15103;DHT22;7652;53.584;9.998;2023-12-20T08:24:09;7.70;99.90
15103;DHT22;7652;53.584;9.998;2023-12-20T08:27:30;7.70;99.90
15103;DHT22;7652;53.584;9.998;2023-12-20T08:30:52;7.80;99.90
15103;DHT22;7652;53.584;9.998;2023-12-20T08:34:16;7.80;99.90
15103;DHT22;7652;53.584;9.998;2023-12-20T08:37:37;7.70;99.90
15103;DHT22;7652;53.584;9.998;2023-12-20T08:40:59;7.70;99.90
15103;DHT22;7652;53.584;9.998;2023-12-20T08:44:21;7.80;99.90
15103;DHT22;7652;53.584;9.998;2023-12-20T08:47:43;7.90;99.90
15103;DHT22;7652;53.584;9.998;2023-12-20T08:51:07;7.90;99.90
15103;DHT22;7652;53.584;9.998;2023-12-20T08:54:29;8.00;99.90
15103;DHT22;7652;53.584;9.998;2023-12-20T08:57:50;7.90;99.90
15103;DHT22;7652;53.584;9.998;2023-12-20T09:01:11;7.80;99.90
15103;DHT22;7652;53.584;9.998;2023-12-20T09:04:33;7.60;99.90
15103;DHT22;7652;53.584;9.998;2023-12-20T09:07:57;7.60;99.90
15103;DHT22;7652;53.584;9.998;2023-12-20T09:11:18;7.50;99.90
15103;DHT22;7652;53.584;9.998;2023-12-20T09:14:40;7.50;99.90
15103;DHT22;7652;53.584;9.998;2023-12-20T09:18:02;7.40;99.90
15103;DHT22;7652;53.584;9.998;2023-12-20T09:21:25;7.40;99.90
15103;DHT22;7652;53.584;9.998;2023-12-20T09:24:47;7.30;99.90
15103;DHT22;7652;53.584;9.998;2023-12-20T09:28:09;7.00;99.90
15103;DHT22;7652;53.584;9.998;2023-12-20T09:31:31;6.90;99.90
15103;DHT22;7652;53.584;9.998;2023-12-20T09:34:53;6.90;99.90
15103;DHT22;7652;53.584;9.998;2023-12-20T09:38:15;6.80;99.90
15103;DHT22;7652;53.584;9.998;2023-12-20T09:41:43;6.80;99.90
15103;DHT22;7652;53.584;9.998;2023-12-20T09:45:08;6.80;99.90
15103;DHT22;7652;53.584;9.998;2023-12-20T09:48:31;6.80;99.90
15103;DHT22;7652;53.584;9.998;2023-12-20T09:51:54;6.90;99.90
15103;DHT22;7652;53.584;9.998;2023-12-20T09:55:17;6.90;99.90
15103;DHT22;7652;53.584;9.998;2023-12-20T09:58:41;6.90;99.90
15103;DHT22;7652;53.584;9.998;2023-12-20T10:02:04;6.80;99.90
15103;DHT22;7652;53.584;9.998;2023-12-20T10:05:31;6.70;99.90
15103;DHT22;7652;53.584;9.998;2023-12-20T10:08:53;6.60;99.90
15103;DHT22;7652;53.584;9.998;2023-12-20T10:12:15;6.50;99.90
15103;DHT22;7652;53.584;9.998;2023-12-20T10:15:38;6.50;99.90
15103;DHT22;7652;53.584;9.998;2023-12-20T10:19:01;6.50;99.90
15103;DHT22;7652;53.584;9.998;2023-12-20T10:22:23;6.60;99.90
15103;DHT22;7652;53.584;9.998;2023-12-20T10:25:56;6.60;99.90
15103;DHT22;7652;53.584;9.998;2023-12-20T10:29:18;6.60;99.90
15103;DHT22;7652;53.584;9.998;2023-12-20T10:32:40;6.70;99.90
15103;DHT22;7652;53.584;9.998;2023-12-20T10:36:03;6.70;99.90
15103;DHT22;7652;53.584;9.998;2023-12-20T10:39:25;6.70;99.90
15103;DHT22;7652;53.584;9.998;2023-12-20T10:42:46;6.70;99.90
15103;DHT22;7652;53.584;9.998;2023-12-20T10:46:08;6.70;99.90
15103;DHT22;7652;53.584;9.998;2023-12-20T10:49:31;6.70;99.90
15103;DHT22;7652;53.584;9.998;2023-12-20T10:52:56;6.70;99.90
15103;DHT22;7652;53.584;9.998;2023-12-20T10:56:18;6.70;99.90
15103;DHT22;7652;53.584;9.998;2023-12-20T10:59:41;6.80;99.90
15103;DHT22;7652;53.584;9.998;2023-12-20T11:03:11;6.70;99.90
15103;DHT22;7652;53.584;9.998;2023-12-20T11:06:41;6.80;99.90
15103;DHT22;7652;53.584;9.998;2023-12-20T11:10:13;6.80;99.90
15103;DHT22;7652;53.584;9.998;2023-12-20T11:13:40;6.80;99.90
15103;DHT22;7652;53.584;9.998;2023-12-20T11:17:08;6.80;99.90
15103;DHT22;7652;53.584;9.998;2023-12-20T11:20:36;6.70;99.90
15103;DHT22;7652;53.584;9.998;2023-12-20T11:24:00;6.70;99.90
15103;DHT22;7652;53.584;9.998;2023-12-20T11:27:23;6.70;99.90
15103;DHT22;7652;53.584;9.998;2023-12-20T11:30:51;6.70;99.90
15103;DHT22;7652;53.584;9.998;2023-12-20T11:34:13;6.80;99.90
15103;DHT22;7652;53.584;9.998;2023-12-20T11:37:36;6.80;99.90
15103;DHT22;7652;53.584;9.998;2023-12-20T11:40:59;6.80;99.90
15103;DHT22;7652;53.584;9.998;2023-12-20T11:44:25;6.70;99.90
15103;DHT22;7652;53.584;9.998;2023-12-20T11:47:50;6.60;99.90
15103;DHT22;7652;53.584;9.998;2023-12-20T11:51:12;6.50;99.90
15103;DHT22;7652;53.584;9.998;2023-12-20T11:54:34;6.50;99.90
15103;DHT22;7652;53.584;9.998;2023-12-20T11:57:57;6.80;99.90
15103;DHT22;7652;53.584;9.998;2023-12-20T12:01:20;7.00;99.90
15103;DHT22;7652;53.584;9.998;2023-12-20T12:04:42;7.10;99.90
15103;DHT22;7652;53.584;9.998;2023-12-20T12:08:04;7.00;99.90
15103;DHT22;7652;53.584;9.998;2023-12-20T12:11:26;7.10;99.90
15103;DHT22;7652;53.584;9.998;2023-12-20T12:14:49;7.10;99.90
15103;DHT22;7652;53.584;9.998;2023-12-20T12:18:11;7.10;99.90
15103;DHT22;7652;53.584;9.998;2023-12-20T12:21:32;7.30;99.90
15103;DHT22;7652;53.584;9.998;2023-12-20T12:24:54;7.50;99.90
15103;DHT22;7652;53.584;9.998;2023-12-20T12:28:16;7.70;99.90
15103;DHT22;7652;53.584;9.998;2023-12-20T12:31:39;7.90;99.90
15103;DHT22;7652;53.584;9.998;2023-12-20T12:35:03;8.00;99.90
15103;DHT22;7652;53.584;9.998;2023-12-20T12:38:27;8.20;99.90
15103;DHT22;7652;53.584;9.998;2023-12-20T12:41:49;8.30;99.90
15103;DHT22;7652;53.584;9.998;2023-12-20T12:45:11;8.40;99.90
15103;DHT22;7652;53.584;9.998;2023-12-20T12:48:34;8.70;99.90
15103;DHT22;7652;53.584;9.998;2023-12-20T12:51:56;8.90;99.90
15103;DHT22;7652;53.584;9.998;2023-12-20T12:55:18;8.80;99.90
15103;DHT22;7652;53.584;9.998;2023-12-20T12:58:40;8.70;99.90
15103;DHT22;7652;53.584;9.998;2023-12-20T13:02:01;8.90;99.90
15103;DHT22;7652;53.584;9.998;2023-12-20T13:05:24;8.80;99.90
15103;DHT22;7652;53.584;9.998;2023-12-20T13:08:46;8.90;99.90
15103;DHT22;7652;53.584;9.998;2023-12-20T13:12:08;9.10;99.90
15103;DHT22;7652;53.584;9.998;2023-12-20T13:15:30;9.00;99.90
15103;DHT22;7652;53.584;9.998;2023-12-20T13:18:51;9.00;99.90
15103;DHT22;7652;53.584;9.998;2023-12-20T13:22:14;8.90;99.90
15103;DHT22;7652;53.584;9.998;2023-12-20T13:25:36;8.80;99.90
15103;DHT22;7652;53.584;9.998;2023-12-20T13:28:58;8.70;99.90
15103;DHT22;7652;53.584;9.998;2023-12-20T13:32:20;8.60;99.90
15103;DHT22;7652;53.584;9.998;2023-12-20T13:35:41;8.60;99.90
15103;DHT22;7652;53.584;9.998;2023-12-20T13:39:04;8.50;99.90
15103;DHT22;7652;53.584;9.998;2023-12-20T13:42:27;8.30;99.90
15103;DHT22;7652;53.584;9.998;2023-12-20T13:45:48;8.10;99.90
15103;DHT22;7652;53.584;9.998;2023-12-20T13:49:09;8.10;99.90
15103;DHT22;7652;53.584;9.998;2023-12-20T13:52:32;7.90;99.90
15103;DHT22;7652;53.584;9.998;2023-12-20T13:55:59;7.80;99.90
15103;DHT22;7652;53.584;9.998;2023-12-20T13:59:21;7.70;99.90
15103;DHT22;7652;53.584;9.998;2023-12-20T14:02:43;7.60;99.90
15103;DHT22;7652;53.584;9.998;2023-12-20T14:06:05;7.70;99.90
15103;DHT22;7652;53.584;9.998;2023-12-20T14:09:26;7.70;99.90
15103;DHT22;7652;53.584;9.998;2023-12-20T14:12:49;7.70;99.90
15103;DHT22;7652;53.584;9.998;2023-12-20T14:16:11;7.70;99.90
15103;DHT22;7652;53.584;9.998;2023-12-20T14:19:32;7.70;99.90
15103;DHT22;7652;53.584;9.998;2023-12-20T14:22:54;7.70;99.90
15103;DHT22;7652;53.584;9.998;2023-12-20T14:26:15;7.60;99.90
15103;DHT22;7652;53.584;9.998;2023-12-20T14:29:38;7.60;99.90
15103;DHT22;7652;53.584;9.998;2023-12-20T14:32:59;7.50;99.90
15103;DHT22;7652;53.584;9.998;2023-12-20T14:36:21;7.50;99.90
15103;DHT22;7652;53.584;9.998;2023-12-20T14:39:43;7.50;99.90
15103;DHT22;7652;53.584;9.998;2023-12-20T14:43:04;7.50;99.90
15103;DHT22;7652;53.584;9.998;2023-12-20T14:46:28;7.50;99.90
15103;DHT22;7652;53.584;9.998;2023-12-20T14:49:49;7.50;99.90
15103;DHT22;7652;53.584;9.998;2023-12-20T14:53:11;7.40;99.90
15103;DHT22;7652;53.584;9.998;2023-12-20T14:56:32;7.40;99.90
15103;DHT22;7652;53.584;9.998;2023-12-20T14:59:54;7.30;99.90
15103;DHT22;7652;53.584;9.998;2023-12-20T15:03:17;7.30;99.90
15103;DHT22;7652;53.584;9.998;2023-12-20T15:06:39;7.30;99.90
15103;DHT22;7652;53.584;9.998;2023-12-20T15:10:01;7.30;99.90
15103;DHT22;7652;53.584;9.998;2023-12-20T15:13:22;7.40;99.90
15103;DHT22;7652;53.584;9.998;2023-12-20T15:16:43;7.40;99.90
15103;DHT22;7652;53.584;9.998;2023-12-20T15:20:08;7.40;99.90
15103;DHT22;7652;53.584;9.998;2023-12-20T15:23:31;7.50;99.90
15103;DHT22;7652;53.584;9.998;2023-12-20T15:26:52;7.40;99.90
15103;DHT22;7652;53.584;9.998;2023-12-20T15:30:14;7.40;99.90
15103;DHT22;7652;53.584;9.998;2023-12-20T15:33:36;7.40;99.90
15103;DHT22;7652;53.584;9.998;2023-12-20T15:36:58;7.30;99.90
15103;DHT22;7652;53.584;9.998;2023-12-20T15:40:20;7.30;99.90
15103;DHT22;7652;53.584;9.998;2023-12-20T15:43:42;7.30;99.90
15103;DHT22;7652;53.584;9.998;2023-12-20T15:47:03;7.20;99.90
15103;DHT22;7652;53.584;9.998;2023-12-20T15:50:25;7.20;99.90
15103;DHT22;7652;53.584;9.998;2023-12-20T15:53:48;7.10;99.90
15103;DHT22;7652;53.584;9.998;2023-12-20T15:57:10;7.10;99.90
15103;DHT22;7652;53.584;9.998;2023-12-20T16:00:32;7.00;99.90
15103;DHT22;7652;53.584;9.998;2023-12-20T16:03:53;7.00;99.90
15103;DHT22;7652;53.584;9.998;2023-12-20T16:07:19;7.00;99.90
15103;DHT22;7652;53.584;9.998;2023-12-20T16:10:42;7.10;99.90
15103;DHT22;7652;53.584;9.998;2023-12-20T16:14:04;7.10;99.90
15103;DHT22;7652;53.584;9.998;2023-12-20T16:17:25;7.20;99.90
15103;DHT22;7652;53.584;9.998;2023-12-20T16:20:46;7.20;99.90
15103;DHT22;7652;53.584;9.998;2023-12-20T16:24:08;7.20;99.90
15103;DHT22;7652;53.584;9.998;2023-12-20T16:27:30;7.20;99.90
15103;DHT22;7652;53.584;9.998;2023-12-20T16:30:53;7.20;99.90
15103;DHT22;7652;53.584;9.998;2023-12-20T16:34:17;7.20;99.90
15103;DHT22;7652;53.584;9.998;2023-12-20T16:37:39;7.20;99.90
15103;DHT22;7652;53.584;9.998;2023-12-20T16:41:02;7.30;99.90
15103;DHT22;7652;53.584;9.998;2023-12-20T16:44:25;7.30;99.90
15103;DHT22;7652;53.584;9.998;2023-12-20T16:47:46;7.30;99.90
15103;DHT22;7652;53.584;9.998;2023-12-20T16:51:08;7.20;99.90
15103;DHT22;7652;53.584;9.998;2023-12-20T16:54:29;6.90;99.90
15103;DHT22;7652;53.584;9.998;2023-12-20T16:57:51;6.60;99.90
15103;DHT22;7652;53.584;9.998;2023-12-20T17:01:14;6.50;99.90
15103;DHT22;7652;53.584;9.998;2023-12-20T17:04:37;6.30;99.90
15103;DHT22;7652;53.584;9.998;2023-12-20T17:07:58;6.10;99.90
15103;DHT22;7652;53.584;9.998;2023-12-20T17:11:20;6.10;99.90
15103;DHT22;7652;53.584;9.998;2023-12-20T17:14:42;6.10;99.90
15103;DHT22;7652;53.584;9.998;2023-12-20T17:18:06;6.10;99.90
15103;DHT22;7652;53.584;9.998;2023-12-20T17:21:28;6.00;99.90
15103;DHT22;7652;53.584;9.998;2023-12-20T17:24:50;6.10;99.90
15103;DHT22;7652;53.584;9.998;2023-12-20T17:28:12;6.10;99.90
15103;DHT22;7652;53.584;9.998;2023-12-20T17:31:33;6.20;99.90
15103;DHT22;7652;53.584;9.998;2023-12-20T17:34:57;6.20;99.90
15103;DHT22;7652;53.584;9.998;2023-12-20T17:38:19;6.20;99.90
15103;DHT22;7652;53.584;9.998;2023-12-20T17:41:41;6.30;99.90
15103;DHT22;7652;53.584;9.998;2023-12-20T17:45:03;6.30;99.90
15103;DHT22;7652;53.584;9.998;2023-12-20T17:48:25;6.30;99.90
15103;DHT22;7652;53.584;9.998;2023-12-20T17:51:48;6.30;99.90
15103;DHT22;7652;53.584;9.998;2023-12-20T17:55:10;6.40;99.90
15103;DHT22;7652;53.584;9.998;2023-12-20T17:58:31;6.40;99.90
15103;DHT22;7652;53.584;9.998;2023-12-20T18:01:53;6.40;99.90
15103;DHT22;7652;53.584;9.998;2023-12-20T18:05:15;6.30;99.90
15103;DHT22;7652;53.584;9.998;2023-12-20T18:08:38;6.30;99.90
15103;DHT22;7652;53.584;9.998;2023-12-20T18:11:59;6.30;99.90
15103;DHT22;7652;53.584;9.998;2023-12-20T18:15:21;6.30;99.90
15103;DHT22;7652;53.584;9.998;2023-12-20T18:18:43;6.40;99.90
15103;DHT22;7652;53.584;9.998;2023-12-20T18:22:05;6.50;99.90
15103;DHT22;7652;53.584;9.998;2023-12-20T18:25:28;6.50;99.90
15103;DHT22;7652;53.584;9.998;2023-12-20T18:28:50;6.60;99.90
15103;DHT22;7652;53.584;9.998;2023-12-20T18:32:11;6.60;99.90
15103;DHT22;7652;53.584;9.998;2023-12-20T18:35:33;6.50;99.90
15103;DHT22;7652;53.584;9.998;2023-12-20T18:38:56;6.60;99.90
15103;DHT22;7652;53.584;9.998;2023-12-20T18:42:20;6.60;99.90
15103;DHT22;7652;53.584;9.998;2023-12-20T18:45:42;6.60;99.90
15103;DHT22;7652;53.584;9.998;2023-12-20T18:49:03;6.60;99.90
15103;DHT22;7652;53.584;9.998;2023-12-20T18:52:27;6.70;99.90
15103;DHT22;7652;53.584;9.998;2023-12-20T18:55:48;6.70;99.90
15103;DHT22;7652;53.584;9.998;2023-12-20T18:59:11;6.70;99.90
15103;DHT22;7652;53.584;9.998;2023-12-20T19:02:33;6.70;99.90
15103;DHT22;7652;53.584;9.998;2023-12-20T19:05:55;6.70;99.90
15103;DHT22;7652;53.584;9.998;2023-12-20T19:09:18;6.60;99.90
15103;DHT22;7652;53.584;9.998;2023-12-20T19:12:40;6.60;99.90
15103;DHT22;7652;53.584;9.998;2023-12-20T19:16:05;6.60;99.90
15103;DHT22;7652;53.584;9.998;2023-12-20T19:19:27;6.70;99.90
15103;DHT22;7652;53.584;9.998;2023-12-20T19:22:49;6.60;99.90
15103;DHT22;7652;53.584;9.998;2023-12-20T19:26:11;6.60;99.90
15103;DHT22;7652;53.584;9.998;2023-12-20T19:29:32;6.60;99.90
15103;DHT22;7652;53.584;9.998;2023-12-20T19:32:55;6.70;99.90
15103;DHT22;7652;53.584;9.998;2023-12-20T19:36:17;6.60;99.90
15103;DHT22;7652;53.584;9.998;2023-12-20T19:39:38;6.60;99.90
15103;DHT22;7652;53.584;9.998;2023-12-20T19:43:00;6.60;99.90
15103;DHT22;7652;53.584;9.998;2023-12-20T19:46:22;6.60;99.90
15103;DHT22;7652;53.584;9.998;2023-12-20T19:49:44;6.60;99.90
15103;DHT22;7652;53.584;9.998;2023-12-20T19:53:06;6.60;99.90
15103;DHT22;7652;53.584;9.998;2023-12-20T19:56:28;6.60;99.90
15103;DHT22;7652;53.584;9.998;2023-12-20T19:59:49;6.60;99.90
15103;DHT22;7652;53.584;9.998;2023-12-20T20:03:10;6.60;99.90
15103;DHT22;7652;53.584;9.998;2023-12-20T20:06:34;6.50;99.90
15103;DHT22;7652;53.584;9.998;2023-12-20T20:09:55;6.50;99.90
15103;DHT22;7652;53.584;9.998;2023-12-20T20:13:17;6.60;99.90
15103;DHT22;7652;53.584;9.998;2023-12-20T20:16:38;6.60;99.90
15103;DHT22;7652;53.584;9.998;2023-12-20T20:20:00;6.60;99.90
15103;DHT22;7652;53.584;9.998;2023-12-20T20:23:23;6.60;99.90
15103;DHT22;7652;53.584;9.998;2023-12-20T20:26:45;6.60;99.90
15103;DHT22;7652;53.584;9.998;2023-12-20T20:30:07;6.60;99.90
15103;DHT22;7652;53.584;9.998;2023-12-20T20:33:29;6.60;99.90
15103;DHT22;7652;53.584;9.998;2023-12-20T20:36:51;6.70;99.90
15103;DHT22;7652;53.584;9.998;2023-12-20T20:40:14;6.70;99.90
15103;DHT22;7652;53.584;9.998;2023-12-20T20:43:39;6.70;99.90
15103;DHT22;7652;53.584;9.998;2023-12-20T20:47:01;6.60;99.90
15103;DHT22;7652;53.584;9.998;2023-12-20T20:50:23;6.70;99.90
15103;DHT22;7652;53.584;9.998;2023-12-20T20:53:45;6.70;99.90
15103;DHT22;7652;53.584;9.998;2023-12-20T20:57:08;6.70;99.90
15103;DHT22;7652;53.584;9.998;2023-12-20T21:00:30;6.70;99.90
15103;DHT22;7652;53.584;9.998;2023-12-20T21:03:52;6.60;99.90
15103;DHT22;7652;53.584;9.998;2023-12-20T21:07:14;6.60;99.90
15103;DHT22;7652;53.584;9.998;2023-12-20T21:10:36;6.60;99.90
15103;DHT22;7652;53.584;9.998;2023-12-20T21:13:59;6.60;99.90
15103;DHT22;7652;53.584;9.998;2023-12-20T21:17:20;6.70;99.90
15103;DHT22;7652;53.584;9.998;2023-12-20T21:20:41;6.70;99.90
15103;DHT22;7652;53.584;9.998;2023-12-20T21:24:04;6.70;99.90
15103;DHT22;7652;53.584;9.998;2023-12-20T21:27:25;6.70;99.90
15103;DHT22;7652;53.584;9.998;2023-12-20T21:30:48;6.70;99.90
15103;DHT22;7652;53.584;9.998;2023-12-20T21:34:10;6.70;99.90
15103;DHT22;7652;53.584;9.998;2023-12-20T21:37:32;6.70;99.90
15103;DHT22;7652;53.584;9.998;2023-12-20T21:40:53;6.70;99.90
15103;DHT22;7652;53.584;9.998;2023-12-20T21:44:15;6.80;99.90
15103;DHT22;7652;53.584;9.998;2023-12-20T21:47:38;6.80;99.90
15103;DHT22;7652;53.584;9.998;2023-12-20T21:51:02;6.80;99.90
15103;DHT22;7652;53.584;9.998;2023-12-20T21:54:23;6.80;99.90
15103;DHT22;7652;53.584;9.998;2023-12-20T21:57:45;6.90;99.90
15103;DHT22;7652;53.584;9.998;2023-12-20T22:01:07;6.90;99.90